Time;durP1;ratioP1;P1;durP2;ratioP2;P2;SDS_P1;SDS_P2;PMS_P1;PMS_P2;Temp;Humidity;BMP_temperature;BMP_pressure;BME280_temperature;BME280_humidity;BME280_pressure;Samples;Min_cycle;Max_cycle;Signal;HPM_P1;HPM_P2
2024/03/06 00:00:10;;;;;;;69.13;24.48;;;;;;;;;;5068595;28;20029;-58
2024/03/06 00:02:36;;;;;;;60.25;21.98;;;;;;;;;;5072110;28;20024;-60
2024/03/06 00:05:04;;;;;;;62.63;23.35;;;;;;;;;;5069298;28;20040;-58
2024/03/06 00:07:30;;;;;;;61.25;23.90;;;;;;;;;;5071404;28;20035;-57
2024/03/06 00:09:56;;;;;;;63.67;24.38;;;;;;;;;;5069269;28;20394;-58
2024/03/06 00:12:22;;;;;;;67.07;25.17;;;;;;;;;;5065949;28;20028;-59
2024/03/06 00:14:48;;;;;;;67.38;25.08;;;;;;;;;;5067039;28;20124;-59
2024/03/06 00:17:13;;;;;;;64.30;22.55;;;;;;;;;;5073073;28;20475;-59
2024/03/06 00:19:39;;;;;;;58.25;20.85;;;;;;;;;;5071401;28;20028;-59
2024/03/06 00:22:05;;;;;;;65.75;22.77;;;;;;;;;;5069829;28;20100;-59
2024/03/06 00:24:32;;;;;;;58.00;21.77;;;;;;;;;;5071756;28;20099;-59
2024/03/06 00:26:58;;;;;;;62.50;21.15;;;;;;;;;;5064086;28;20028;-58
2024/03/06 00:29:24;;;;;;;60.17;23.42;;;;;;;;;;5064112;28;20495;-59
2024/03/06 00:31:50;;;;;;;60.22;23.52;;;;;;;;;;5065967;28;20051;-59
2024/03/06 00:34:16;;;;;;;68.93;25.23;;;;;;;;;;5065389;28;20094;-60
2024/03/06 00:36:43;;;;;;;62.38;23.90;;;;;;;;;;5065609;28;20487;-59
2024/03/06 00:39:09;;;;;;;67.18;23.65;;;;;;;;;;5065032;28;20475;-59
2024/03/06 00:41:35;;;;;;;67.72;24.30;;;;;;;;;;5069844;28;20009;-60
2024/03/06 00:44:02;;;;;;;66.13;25.10;;;;;;;;;;5076794;28;20052;-58
2024/03/06 00:46:28;;;;;;;63.72;23.65;;;;;;;;;;5077244;28;20414;-60
2024/03/06 00:48:54;;;;;;;76.05;25.83;;;;;;;;;;5072271;28;20034;-59
2024/03/06 00:51:20;;;;;;;62.40;24.48;;;;;;;;;;5072151;28;20107;-61
2024/03/06 00:53:46;;;;;;;66.55;24.58;;;;;;;;;;5070768;28;20052;-59
2024/03/06 00:56:12;;;;;;;68.63;24.35;;;;;;;;;;5072312;28;20523;-59
2024/03/06 00:58:38;;;;;;;70.50;24.02;;;;;;;;;;5065228;28;20029;-59
2024/03/06 01:01:04;;;;;;;69.55;25.40;;;;;;;;;;5069529;28;20044;-60
2024/03/06 01:03:30;;;;;;;57.88;22.13;;;;;;;;;;5070174;28;20083;-58
2024/03/06 01:05:56;;;;;;;73.43;26.02;;;;;;;;;;5065547;28;20093;-58
2024/03/06 01:08:24;;;;;;;64.57;24.33;;;;;;;;;;5071302;28;20383;-58
2024/03/06 01:10:50;;;;;;;65.32;24.00;;;;;;;;;;5073322;28;20036;-56
2024/03/06 01:13:16;;;;;;;63.60;23.95;;;;;;;;;;5069672;28;20028;-59
2024/03/06 01:15:42;;;;;;;58.72;23.08;;;;;;;;;;5068047;28;20024;-59
2024/03/06 01:18:08;;;;;;;52.10;21.58;;;;;;;;;;5066286;28;20028;-60
2024/03/06 01:20:35;;;;;;;56.80;21.65;;;;;;;;;;5069170;28;20070;-60
2024/03/06 01:23:01;;;;;;;52.80;19.10;;;;;;;;;;5065936;28;20569;-60
2024/03/06 01:25:27;;;;;;;56.22;21.15;;;;;;;;;;5072334;28;20028;-60
2024/03/06 01:27:53;;;;;;;51.60;21.25;;;;;;;;;;5064880;28;20040;-59
2024/03/06 01:30:19;;;;;;;54.38;22.20;;;;;;;;;;5067341;28;20070;-58
2024/03/06 01:32:46;;;;;;;64.05;24.27;;;;;;;;;;5061699;28;20020;-59
2024/03/06 01:35:12;;;;;;;54.72;20.08;;;;;;;;;;5061683;28;20048;-59
2024/03/06 01:37:38;;;;;;;61.50;22.60;;;;;;;;;;5068280;28;20370;-59
2024/03/06 01:40:04;;;;;;;49.60;21.38;;;;;;;;;;5064333;28;20455;-60
2024/03/06 01:42:30;;;;;;;49.00;20.08;;;;;;;;;;5070354;28;20473;-60
2024/03/06 01:44:56;;;;;;;53.85;18.90;;;;;;;;;;5068260;28;20024;-59
2024/03/06 01:47:22;;;;;;;43.95;19.35;;;;;;;;;;5070089;28;20074;-59
2024/03/06 01:49:48;;;;;;;46.17;19.10;;;;;;;;;;5067929;28;20085;-58
2024/03/06 01:52:15;;;;;;;52.15;18.33;;;;;;;;;;5066714;28;20032;-57
2024/03/06 01:54:41;;;;;;;46.47;19.05;;;;;;;;;;5071333;28;20093;-58
2024/03/06 01:57:08;;;;;;;56.80;20.13;;;;;;;;;;5071331;28;20112;-59
2024/03/06 01:59:34;;;;;;;52.28;19.55;;;;;;;;;;5070146;28;20032;-59
2024/03/06 02:02:01;;;;;;;48.38;19.00;;;;;;;;;;5071586;28;20029;-59
2024/03/06 02:04:30;;;;;;;51.45;19.63;;;;;;;;;;5067328;28;20099;-59
2024/03/06 02:06:56;;;;;;;47.20;18.75;;;;;;;;;;5068986;28;20050;-59
2024/03/06 02:09:23;;;;;;;41.17;17.85;;;;;;;;;;5065319;28;20428;-59
2024/03/06 02:11:53;;;;;;;43.00;18.52;;;;;;;;;;5068028;28;20489;-59
2024/03/06 02:14:19;;;;;;;45.97;17.48;;;;;;;;;;5049854;28;20082;-59
2024/03/06 02:16:45;;;;;;;42.22;17.20;;;;;;;;;;5062311;28;20111;-59
2024/03/06 02:19:11;;;;;;;47.47;16.75;;;;;;;;;;5058816;28;20025;-58
2024/03/06 02:21:37;;;;;;;45.08;16.33;;;;;;;;;;5063300;28;20029;-59
2024/03/06 02:24:03;;;;;;;49.72;16.77;;;;;;;;;;5056846;28;20028;-59
2024/03/06 02:26:29;;;;;;;37.35;16.35;;;;;;;;;;5058286;28;20025;-58
2024/03/06 02:28:57;;;;;;;35.75;15.77;;;;;;;;;;5063102;28;20107;-59
2024/03/06 02:31:23;;;;;;;43.20;16.98;;;;;;;;;;5056755;28;20474;-60
2024/03/06 02:33:50;;;;;;;39.42;16.52;;;;;;;;;;5060887;28;20112;-60
2024/03/06 02:36:16;;;;;;;44.08;17.27;;;;;;;;;;5059451;28;20490;-57
2024/03/06 02:38:43;;;;;;;34.42;15.93;;;;;;;;;;5065889;28;20505;-57
2024/03/06 02:41:09;;;;;;;30.70;14.80;;;;;;;;;;5064004;28;20062;-54
2024/03/06 02:43:35;;;;;;;38.45;17.05;;;;;;;;;;5063856;28;20393;-58
2024/03/06 02:46:01;;;;;;;42.13;18.02;;;;;;;;;;5066661;28;20029;-58
2024/03/06 02:48:29;;;;;;;31.67;14.77;;;;;;;;;;5065517;28;20086;-59
2024/03/06 02:50:55;;;;;;;35.10;14.77;;;;;;;;;;5064033;28;20032;-58
2024/03/06 02:53:21;;;;;;;36.58;16.02;;;;;;;;;;5070533;28;20081;-60
2024/03/06 02:55:47;;;;;;;33.95;15.52;;;;;;;;;;5074270;28;20032;-58
2024/03/06 02:58:13;;;;;;;38.47;15.32;;;;;;;;;;5074844;28;20032;-59
2024/03/06 03:00:41;;;;;;;36.05;15.40;;;;;;;;;;5065110;28;20052;-59
2024/03/06 03:03:07;;;;;;;32.78;13.75;;;;;;;;;;5072990;28;20024;-58
2024/03/06 03:05:33;;;;;;;35.88;15.05;;;;;;;;;;5064704;28;20067;-58
2024/03/06 03:07:59;;;;;;;35.40;14.68;;;;;;;;;;5072145;28;20032;-61
2024/03/06 03:10:26;;;;;;;29.45;13.63;;;;;;;;;;5068105;28;20029;-57
2024/03/06 03:12:52;;;;;;;34.97;14.00;;;;;;;;;;5072384;28;20035;-60
2024/03/06 03:15:18;;;;;;;32.35;14.40;;;;;;;;;;5073695;28;20483;-59
2024/03/06 03:17:44;;;;;;;32.55;14.32;;;;;;;;;;5073611;28;20032;-61
2024/03/06 03:20:10;;;;;;;35.80;13.68;;;;;;;;;;5072903;28;20020;-58
2024/03/06 03:22:38;;;;;;;37.53;14.90;;;;;;;;;;5074607;28;20539;-58
2024/03/06 03:25:07;;;;;;;29.75;12.65;;;;;;;;;;5072944;28;20082;-59
2024/03/06 03:27:33;;;;;;;36.65;13.48;;;;;;;;;;5068677;28;20044;-60
2024/03/06 03:29:59;;;;;;;34.00;14.65;;;;;;;;;;5070490;28;20393;-60
2024/03/06 03:32:25;;;;;;;31.08;12.75;;;;;;;;;;5069711;28;20032;-59
2024/03/06 03:34:51;;;;;;;31.65;12.40;;;;;;;;;;5072176;28;20467;-60
2024/03/06 03:37:17;;;;;;;47.47;16.60;;;;;;;;;;5068661;28;20112;-61
2024/03/06 03:39:44;;;;;;;44.40;16.52;;;;;;;;;;5075330;28;20021;-61
2024/03/06 03:42:10;;;;;;;55.88;17.73;;;;;;;;;;5075094;28;20028;-61
2024/03/06 03:44:36;;;;;;;44.63;15.38;;;;;;;;;;5065783;28;20122;-61
2024/03/06 03:47:02;;;;;;;40.80;16.20;;;;;;;;;;5067078;28;20033;-60
2024/03/06 03:49:28;;;;;;;32.22;13.20;;;;;;;;;;5071534;28;20430;-60
2024/03/06 03:51:54;;;;;;;40.47;14.45;;;;;;;;;;5065456;28;20060;-60
2024/03/06 03:54:20;;;;;;;37.20;13.45;;;;;;;;;;5073244;28;20056;-57
2024/03/06 03:56:46;;;;;;;33.38;12.82;;;;;;;;;;5071116;28;20100;-60
2024/03/06 03:59:12;;;;;;;32.35;15.25;;;;;;;;;;5069860;28;20059;-60
2024/03/06 04:01:38;;;;;;;31.35;12.48;;;;;;;;;;5064694;28;20033;-60
2024/03/06 04:04:04;;;;;;;52.42;13.15;;;;;;;;;;5067518;28;20029;-60
2024/03/06 04:06:30;;;;;;;30.42;11.25;;;;;;;;;;5070126;28;20024;-61
2024/03/06 04:08:56;;;;;;;26.38;12.40;;;;;;;;;;5066542;28;20040;-58
2024/03/06 04:11:22;;;;;;;26.85;12.27;;;;;;;;;;5074460;28;20035;-59
2024/03/06 04:13:48;;;;;;;32.78;13.52;;;;;;;;;;5071877;28;20028;-60
2024/03/06 04:16:18;;;;;;;33.65;12.73;;;;;;;;;;5068499;28;20036;-60
2024/03/06 04:18:45;;;;;;;28.67;11.10;;;;;;;;;;5065799;28;20023;-61
2024/03/06 04:21:11;;;;;;;26.15;11.05;;;;;;;;;;5061544;28;20043;-58
2024/03/06 04:23:37;;;;;;;25.10;10.20;;;;;;;;;;5060488;28;20043;-57
2024/03/06 04:26:03;;;;;;;34.45;11.27;;;;;;;;;;5067422;28;20027;-59
2024/03/06 04:28:29;;;;;;;24.35;11.00;;;;;;;;;;5065156;28;20427;-59
2024/03/06 04:30:55;;;;;;;21.83;9.13;;;;;;;;;;5060861;28;20081;-59
2024/03/06 04:33:22;;;;;;;20.48;9.55;;;;;;;;;;5060523;28;20028;-59
2024/03/06 04:35:48;;;;;;;20.73;8.63;;;;;;;;;;5060440;28;20028;-59
2024/03/06 04:38:14;;;;;;;13.82;6.72;;;;;;;;;;5066894;28;20025;-59
2024/03/06 04:40:40;;;;;;;15.48;6.93;;;;;;;;;;5062447;28;20017;-59
2024/03/06 04:43:07;;;;;;;12.45;5.95;;;;;;;;;;5070678;28;20028;-60
2024/03/06 04:45:33;;;;;;;15.10;6.57;;;;;;;;;;5059243;28;20028;-60
2024/03/06 04:47:59;;;;;;;13.25;6.40;;;;;;;;;;5069257;28;20029;-59
2024/03/06 04:50:25;;;;;;;14.60;5.40;;;;;;;;;;5067623;28;20131;-60
2024/03/06 04:52:51;;;;;;;16.88;7.00;;;;;;;;;;5071406;28;20029;-59
2024/03/06 04:55:22;;;;;;;13.35;4.68;;;;;;;;;;5065574;28;20037;-59
2024/03/06 04:57:48;;;;;;;12.63;5.72;;;;;;;;;;5070827;28;21250;-59
2024/03/06 05:00:14;;;;;;;14.30;4.90;;;;;;;;;;5065172;28;20028;-58
2024/03/06 05:02:41;;;;;;;9.30;4.90;;;;;;;;;;5069612;28;20482;-60
2024/03/06 05:05:08;;;;;;;13.43;4.57;;;;;;;;;;5063989;28;20115;-58
2024/03/06 05:07:34;;;;;;;12.30;5.30;;;;;;;;;;5064299;28;20067;-58
2024/03/06 05:10:00;;;;;;;15.23;4.97;;;;;;;;;;5073649;28;20094;-59
2024/03/06 05:12:26;;;;;;;9.85;5.10;;;;;;;;;;5067211;28;20036;-58
2024/03/06 05:14:53;;;;;;;13.00;5.15;;;;;;;;;;5066572;28;20055;-59
2024/03/06 05:17:19;;;;;;;14.25;4.68;;;;;;;;;;5067596;28;20098;-59
2024/03/06 05:19:45;;;;;;;12.00;4.55;;;;;;;;;;5065406;28;20437;-58
2024/03/06 05:22:11;;;;;;;20.23;5.78;;;;;;;;;;5066210;28;20109;-59
2024/03/06 05:24:38;;;;;;;9.38;4.72;;;;;;;;;;5069154;28;20029;-60
2024/03/06 05:27:04;;;;;;;9.10;5.35;;;;;;;;;;5069774;28;20444;-59
2024/03/06 05:29:30;;;;;;;14.13;6.05;;;;;;;;;;5067645;28;20099;-60
2024/03/06 05:31:56;;;;;;;9.43;5.32;;;;;;;;;;5063333;28;20453;-60
2024/03/06 05:34:22;;;;;;;9.23;4.90;;;;;;;;;;5064192;28;20028;-59
2024/03/06 05:36:48;;;;;;;11.95;5.63;;;;;;;;;;5065214;28;20190;-60
2024/03/06 05:39:14;;;;;;;8.80;5.18;;;;;;;;;;5068114;28;20548;-56
2024/03/06 05:41:41;;;;;;;11.48;4.75;;;;;;;;;;5071537;28;20091;-60
2024/03/06 05:44:07;;;;;;;10.77;4.88;;;;;;;;;;5065677;28;20021;-60
2024/03/06 05:46:33;;;;;;;13.18;5.30;;;;;;;;;;5067526;28;20092;-59
2024/03/06 05:49:01;;;;;;;15.02;5.15;;;;;;;;;;5069935;28;20029;-59
2024/03/06 05:51:27;;;;;;;10.35;5.53;;;;;;;;;;5058002;28;20024;-56
2024/03/06 05:53:53;;;;;;;13.57;5.43;;;;;;;;;;5058289;28;20775;-59
2024/03/06 05:56:19;;;;;;;9.48;4.45;;;;;;;;;;5065429;28;20075;-58
2024/03/06 05:58:46;;;;;;;10.57;4.63;;;;;;;;;;5062157;28;20415;-59
2024/03/06 06:01:13;;;;;;;13.38;4.30;;;;;;;;;;5064804;28;20036;-60
2024/03/06 06:03:39;;;;;;;8.40;4.57;;;;;;;;;;5067667;28;20118;-59
2024/03/06 06:06:05;;;;;;;12.15;4.82;;;;;;;;;;5059421;28;20135;-59
2024/03/06 06:08:31;;;;;;;7.07;4.28;;;;;;;;;;5064184;28;20039;-61
2024/03/06 06:10:57;;;;;;;13.23;4.30;;;;;;;;;;5062942;28;20029;-60
2024/03/06 06:13:23;;;;;;;12.50;4.78;;;;;;;;;;5064798;28;20100;-55
2024/03/06 06:15:49;;;;;;;12.38;4.38;;;;;;;;;;5066876;28;20028;-59
2024/03/06 06:18:15;;;;;;;15.95;5.07;;;;;;;;;;5064782;28;20529;-59
2024/03/06 06:20:42;;;;;;;12.07;4.60;;;;;;;;;;5065349;28;20482;-57
2024/03/06 06:23:08;;;;;;;7.60;3.88;;;;;;;;;;5068203;28;20025;-57
2024/03/06 06:25:35;;;;;;;13.55;5.15;;;;;;;;;;5065033;28;20028;-59
2024/03/06 06:28:01;;;;;;;12.50;5.07;;;;;;;;;;5066783;28;20043;-59
2024/03/06 06:30:26;;;;;;;11.85;5.18;;;;;;;;;;5067164;28;20376;-60
2024/03/06 06:32:52;;;;;;;10.55;5.32;;;;;;;;;;5062504;28;20070;-59
2024/03/06 06:35:18;;;;;;;9.60;4.57;;;;;;;;;;5069216;28;20033;-60
2024/03/06 06:37:46;;;;;;;14.82;5.53;;;;;;;;;;5065515;28;20052;-59
2024/03/06 06:40:12;;;;;;;9.18;4.75;;;;;;;;;;5066768;28;20029;-59
2024/03/06 06:42:44;;;;;;;13.18;6.35;;;;;;;;;;5071682;28;20391;-60
2024/03/06 06:45:10;;;;;;;12.07;5.13;;;;;;;;;;5060740;28;20059;-59
2024/03/06 06:47:36;;;;;;;11.93;5.60;;;;;;;;;;5067536;28;20021;-59
2024/03/06 06:50:05;;;;;;;12.18;5.82;;;;;;;;;;5061094;28;20116;-57
2024/03/06 06:52:33;;;;;;;14.30;5.38;;;;;;;;;;5065839;28;20025;-62
2024/03/06 06:54:59;;;;;;;10.73;4.85;;;;;;;;;;5066960;28;20028;-60
2024/03/06 06:57:25;;;;;;;9.07;4.85;;;;;;;;;;5066954;28;20118;-58
2024/03/06 06:59:52;;;;;;;12.45;5.18;;;;;;;;;;5066778;28;20234;-60
2024/03/06 07:02:18;;;;;;;13.65;5.53;;;;;;;;;;5069837;28;20059;-60
2024/03/06 07:04:44;;;;;;;10.98;5.60;;;;;;;;;;5065487;28;20044;-60
2024/03/06 07:07:10;;;;;;;13.02;5.68;;;;;;;;;;5064444;28;20024;-58
2024/03/06 07:09:36;;;;;;;10.85;5.82;;;;;;;;;;5062945;28;20032;-58
2024/03/06 07:12:02;;;;;;;14.73;5.53;;;;;;;;;;5063411;28;20033;-58
2024/03/06 07:14:28;;;;;;;12.18;6.25;;;;;;;;;;5064790;28;20115;-59
2024/03/06 07:16:54;;;;;;;19.63;6.25;;;;;;;;;;5064884;28;20487;-58
2024/03/06 07:19:20;;;;;;;12.30;5.45;;;;;;;;;;5069110;28;20036;-59
2024/03/06 07:21:47;;;;;;;16.42;5.18;;;;;;;;;;5068213;28;20101;-59
2024/03/06 07:24:13;;;;;;;10.95;5.13;;;;;;;;;;5068648;28;20017;-59
2024/03/06 07:26:39;;;;;;;8.43;4.82;;;;;;;;;;5068987;28;20067;-59
2024/03/06 07:29:12;;;;;;;10.10;5.70;;;;;;;;;;5069192;28;20033;-60
2024/03/06 07:31:38;;;;;;;10.70;5.43;;;;;;;;;;5065870;28;20478;-59
2024/03/06 07:34:06;;;;;;;12.23;5.57;;;;;;;;;;5074521;28;20032;-60
2024/03/06 07:36:33;;;;;;;12.60;5.68;;;;;;;;;;5076083;28;20390;-60
2024/03/06 07:38:59;;;;;;;14.40;5.88;;;;;;;;;;5070765;28;20470;-56
2024/03/06 07:41:25;;;;;;;11.63;5.38;;;;;;;;;;5069629;28;20031;-59
2024/03/06 07:43:51;;;;;;;9.00;5.10;;;;;;;;;;5068427;28;20111;-60
2024/03/06 07:46:17;;;;;;;11.05;5.63;;;;;;;;;;5064651;28;20028;-60
2024/03/06 07:48:46;;;;;;;11.88;5.47;;;;;;;;;;5071105;28;20027;-59
2024/03/06 07:51:12;;;;;;;12.13;6.80;;;;;;;;;;5074909;28;20040;-60
2024/03/06 07:53:38;;;;;;;11.98;5.78;;;;;;;;;;5070742;28;20435;-60
2024/03/06 07:56:04;;;;;;;16.05;5.90;;;;;;;;;;5074111;28;20036;-56
2024/03/06 07:58:31;;;;;;;11.68;5.32;;;;;;;;;;5064637;28;20025;-60
2024/03/06 08:00:57;;;;;;;9.70;5.57;;;;;;;;;;5062617;28;20025;-61
2024/03/06 08:03:24;;;;;;;12.90;6.50;;;;;;;;;;5067796;28;20103;-59
2024/03/06 08:05:53;;;;;;;15.05;5.95;;;;;;;;;;5073365;28;20032;-60
2024/03/06 08:08:19;;;;;;;11.55;5.63;;;;;;;;;;5069453;28;20024;-60
2024/03/06 08:10:45;;;;;;;12.15;5.65;;;;;;;;;;5064378;28;20039;-61
2024/03/06 08:13:11;;;;;;;13.00;6.65;;;;;;;;;;5066081;28;20060;-59
2024/03/06 08:15:37;;;;;;;12.18;5.78;;;;;;;;;;5073701;28;20036;-60
2024/03/06 08:18:03;;;;;;;11.35;5.85;;;;;;;;;;5071645;28;20043;-60
2024/03/06 08:20:29;;;;;;;14.40;6.50;;;;;;;;;;5073865;28;20070;-60
2024/03/06 08:22:56;;;;;;;12.73;6.30;;;;;;;;;;5068442;28;20032;-60
2024/03/06 08:25:22;;;;;;;10.77;5.97;;;;;;;;;;5068871;28;20029;-60
2024/03/06 08:27:48;;;;;;;13.05;6.43;;;;;;;;;;5062929;28;20056;-60
2024/03/06 08:30:15;;;;;;;12.82;6.47;;;;;;;;;;5067294;28;20035;-60
2024/03/06 08:32:43;;;;;;;13.15;7.10;;;;;;;;;;5073720;28;20115;-60
2024/03/06 08:35:12;;;;;;;14.05;6.63;;;;;;;;;;5068466;28;20558;-59
2024/03/06 08:37:41;;;;;;;11.75;6.90;;;;;;;;;;5069762;28;20039;-60
2024/03/06 08:40:10;;;;;;;14.52;7.70;;;;;;;;;;5074976;28;20052;-60
2024/03/06 08:42:36;;;;;;;17.10;8.02;;;;;;;;;;5067510;28;20029;-58
2024/03/06 08:45:02;;;;;;;17.77;7.53;;;;;;;;;;5069153;28;20040;-57
2024/03/06 08:47:28;;;;;;;16.05;7.32;;;;;;;;;;5066508;28;20030;-60
2024/03/06 08:49:54;;;;;;;19.15;7.40;;;;;;;;;;5071432;28;20025;-60
2024/03/06 08:52:21;;;;;;;19.08;8.70;;;;;;;;;;5067076;28;20082;-60
2024/03/06 08:54:47;;;;;;;16.13;8.25;;;;;;;;;;5065469;28;20060;-60
2024/03/06 08:57:13;;;;;;;19.75;8.27;;;;;;;;;;5074512;28;20052;-60
2024/03/06 08:59:39;;;;;;;21.70;9.15;;;;;;;;;;5067741;28;20029;-60
2024/03/06 09:02:18;;;;;;;17.75;7.63;;;;;;;;;;5069062;28;20070;-60
2024/03/06 09:04:44;;;;;;;22.23;8.48;;;;;;;;;;5066905;28;20080;-59
2024/03/06 09:07:11;;;;;;;17.38;8.25;;;;;;;;;;5072212;28;20096;-59
2024/03/06 09:09:37;;;;;;;20.63;9.07;;;;;;;;;;5068879;28;20028;-59
2024/03/06 09:12:05;;;;;;;15.57;8.57;;;;;;;;;;5072729;28;20059;-60
2024/03/06 09:14:31;;;;;;;18.42;8.23;;;;;;;;;;5068723;28;20497;-60
2024/03/06 09:16:57;;;;;;;16.73;8.90;;;;;;;;;;5074600;28;20027;-60
2024/03/06 09:19:23;;;;;;;18.73;8.23;;;;;;;;;;5069993;28;20032;-60
2024/03/06 09:21:49;;;;;;;16.60;7.40;;;;;;;;;;5070632;28;20025;-60
2024/03/06 09:24:15;;;;;;;17.25;6.05;;;;;;;;;;5071409;28;20028;-59
2024/03/06 09:26:41;;;;;;;14.73;6.57;;;;;;;;;;5062812;28;20020;-60
2024/03/06 09:29:07;;;;;;;16.33;6.82;;;;;;;;;;5067392;28;20100;-61
2024/03/06 09:31:33;;;;;;;10.18;6.30;;;;;;;;;;5068805;28;20040;-58
2024/03/06 09:33:59;;;;;;;15.25;7.43;;;;;;;;;;5070689;28;20099;-61
2024/03/06 09:36:25;;;;;;;18.52;6.45;;;;;;;;;;5070660;28;20029;-60
2024/03/06 09:38:52;;;;;;;17.90;7.53;;;;;;;;;;5069450;28;20076;-60
2024/03/06 09:41:18;;;;;;;13.88;6.45;;;;;;;;;;5069707;28;20070;-60
2024/03/06 09:43:45;;;;;;;17.17;6.43;;;;;;;;;;5067374;28;20029;-60
2024/03/06 09:46:11;;;;;;;11.43;6.43;;;;;;;;;;5073116;28;20528;-60
2024/03/06 09:48:39;;;;;;;13.20;6.35;;;;;;;;;;5068894;28;20132;-60
2024/03/06 09:51:05;;;;;;;18.63;6.57;;;;;;;;;;5068475;28;20032;-59
2024/03/06 09:53:31;;;;;;;12.88;5.85;;;;;;;;;;5063771;28;20047;-60
2024/03/06 09:55:57;;;;;;;15.40;6.05;;;;;;;;;;5067587;28;20036;-60
2024/03/06 09:58:24;;;;;;;13.63;7.25;;;;;;;;;;5065478;28;20029;-60
2024/03/06 10:00:53;;;;;;;13.55;6.30;;;;;;;;;;5065713;28;20020;-60
2024/03/06 10:03:20;;;;;;;17.58;6.40;;;;;;;;;;5069821;28;20479;-59
2024/03/06 10:05:46;;;;;;;14.88;6.45;;;;;;;;;;5067968;28;20456;-60
2024/03/06 10:08:16;;;;;;;14.00;6.25;;;;;;;;;;5071711;28;20516;-60
2024/03/06 10:10:42;;;;;;;18.08;7.20;;;;;;;;;;5067672;28;20091;-61
2024/03/06 10:13:08;;;;;;;17.77;6.90;;;;;;;;;;5069678;28;20021;-58
2024/03/06 10:15:36;;;;;;;16.85;7.00;;;;;;;;;;5065679;28;20090;-58
2024/03/06 10:18:13;;;;;;;17.25;7.55;;;;;;;;;;5067150;28;20494;-59
2024/03/06 10:20:39;;;;;;;16.48;8.27;;;;;;;;;;5059911;28;20028;-55
2024/03/06 10:23:05;;;;;;;20.40;8.95;;;;;;;;;;5063475;28;20033;-59
2024/03/06 10:25:31;;;;;;;18.77;8.68;;;;;;;;;;5069677;28;20016;-60
2024/03/06 10:28:07;;;;;;;19.77;8.48;;;;;;;;;;5064280;28;20071;-59
2024/03/06 10:30:37;;;;;;;16.02;8.23;;;;;;;;;;5063358;28;20060;-61
2024/03/06 10:33:04;;;;;;;20.90;8.95;;;;;;;;;;5063161;28;20037;-60
2024/03/06 10:35:30;;;;;;;16.70;8.93;;;;;;;;;;5070614;28;20024;-58
2024/03/06 10:37:56;;;;;;;19.98;8.98;;;;;;;;;;5065502;28;20075;-59
2024/03/06 10:40:23;;;;;;;17.98;7.53;;;;;;;;;;5065869;28;20028;-57
2024/03/06 10:42:49;;;;;;;15.65;6.90;;;;;;;;;;5067114;28;20105;-60
2024/03/06 10:45:15;;;;;;;16.60;6.88;;;;;;;;;;5071933;28;20058;-58
2024/03/06 10:47:43;;;;;;;12.90;6.90;;;;;;;;;;5066469;28;20025;-60
2024/03/06 10:50:10;;;;;;;17.05;6.82;;;;;;;;;;5070296;28;20505;-59
2024/03/06 10:52:37;;;;;;;17.27;7.63;;;;;;;;;;5061139;28;20104;-60
2024/03/06 10:55:03;;;;;;;16.27;6.97;;;;;;;;;;5069306;28;20035;-60
2024/03/06 10:57:30;;;;;;;19.08;8.40;;;;;;;;;;5071343;28;20155;-59
2024/03/06 10:59:59;;;;;;;17.17;8.82;;;;;;;;;;5065648;28;20028;-59
2024/03/06 11:02:25;;;;;;;21.48;7.97;;;;;;;;;;5067396;28;20028;-60
2024/03/06 11:04:52;;;;;;;17.20;7.70;;;;;;;;;;5070730;28;20028;-58
2024/03/06 11:07:18;;;;;;;16.65;9.10;;;;;;;;;;5067357;28;20025;-59
2024/03/06 11:09:44;;;;;;;18.92;8.65;;;;;;;;;;5072463;28;20507;-60
2024/03/06 11:12:10;;;;;;;14.38;8.75;;;;;;;;;;5069470;28;20024;-59
2024/03/06 11:14:37;;;;;;;20.35;8.68;;;;;;;;;;5070062;28;20052;-59
2024/03/06 11:17:08;;;;;;;17.30;7.72;;;;;;;;;;5069442;28;20383;-60
2024/03/06 11:19:53;;;;;;;17.85;9.40;;;;;;;;;;5072069;28;20028;-60
2024/03/06 11:22:19;;;;;;;;;;;;;;;;;;5064005;28;20032;-59
2024/03/06 11:24:45;;;;;;;;;;;;;;;;;;5072072;28;19908;-59
2024/03/06 11:27:15;;;;;;;;;;;;;;;;;;5069990;28;19917;-59
2024/03/06 11:29:40;;;;;;;;;;;;;;;;;;5065457;28;19919;-59
2024/03/06 11:32:07;;;;;;;;;;;;;;;;;;5064413;28;19918;-60
2024/03/06 11:34:33;;;;;;;;;;;;;;;;;;5069789;28;19987;-59
2024/03/06 11:36:59;;;;;;;;;;;;;;;;;;5067435;28;19986;-59
2024/03/06 11:39:25;;;;;;;;;;;;;;;;;;5068359;28;19916;-59
2024/03/06 11:41:51;;;;;;;;;;;;;;;;;;5069921;28;19908;-59
2024/03/06 11:44:17;;;;;;;;;;;;;;;;;;5072016;28;20324;-57
2024/03/06 11:46:43;;;;;;;;;;;;;;;;;;5073498;28;19924;-59
2024/03/06 11:49:09;;;;;;;;;;;;;;;;;;5073272;28;19908;-60
2024/03/06 11:51:34;;;;;;;;;;;;;;;;;;5066511;28;19962;-58
2024/03/06 11:54:00;;;;;;;;;;;;;;;;;;5069550;28;19908;-60
2024/03/06 11:56:26;;;;;;;;;;;;;;;;;;5068936;28;19919;-59
2024/03/06 11:58:53;;;;;;;;;;;;;;;;;;5068021;28;20549;-59
2024/03/06 12:01:19;;;;;;;;;;;;;;;;;;5069274;28;19985;-57
2024/03/06 12:03:45;;;;;;;;;;;;;;;;;;5070861;28;19915;-58
2024/03/06 12:06:12;;;;;;;;;;;;;;;;;;5068691;28;20360;-63
2024/03/06 12:08:38;;;;;;;;;;;;;;;;;;5065133;28;19912;-62
2024/03/06 12:11:04;;;;;;;;;;;;;;;;;;5067054;28;20393;-62
2024/03/06 12:13:30;;;;;;;;;;;;;;;;;;5063721;28;20300;-62
2024/03/06 12:15:56;;;;;;;;;;;;;;;;;;5064325;28;19916;-62
2024/03/06 12:18:22;;;;;;;;;;;;;;;;;;5070166;28;19935;-61
2024/03/06 12:20:48;;;;;;;;;;;;;;;;;;5068085;28;19919;-61
2024/03/06 12:23:14;;;;;;;;;;;;;;;;;;5067867;28;19916;-63
2024/03/06 12:25:40;;;;;;;;;;;;;;;;;;5065739;28;19908;-63
2024/03/06 12:28:08;;;;;;;;;;;;;;;;;;5066014;28;19918;-62
2024/03/06 12:30:34;;;;;;;;;;;;;;;;;;5066632;28;19950;-62
2024/03/06 12:33:00;;;;;;;;;;;;;;;;;;5069500;28;19916;-63
2024/03/06 12:35:26;;;;;;;;;;;;;;;;;;5064063;28;19916;-62
2024/03/06 12:37:52;;;;;;;;;;;;;;;;;;5061373;28;19912;-63
2024/03/06 12:40:18;;;;;;;;;;;;;;;;;;5064043;28;19923;-63
2024/03/06 12:42:45;;;;;;;;;;;;;;;;;;5060143;28;19912;-62
2024/03/06 12:45:13;;;;;;;;;;;;;;;;;;5064681;28;19916;-62
2024/03/06 12:47:39;;;;;;;;;;;;;;;;;;5062317;28;19912;-61
2024/03/06 12:50:07;;;;;;;;;;;;;;;;;;5061443;28;19919;-61
2024/03/06 12:52:33;;;;;;;;;;;;;;;;;;5063242;28;19912;-61
2024/03/06 12:54:59;;;;;;;;;;;;;;;;;;5063825;28;19919;-63
2024/03/06 12:57:25;;;;;;;;;;;;;;;;;;5063512;28;19920;-63
2024/03/06 12:59:51;;;;;;;;;;;;;;;;;;5059268;28;19923;-63
2024/03/06 13:02:17;;;;;;;;;;;;;;;;;;5062663;28;19932;-63
2024/03/06 13:04:43;;;;;;;;;;;;;;;;;;5060544;28;20393;-62
2024/03/06 13:07:09;;;;;;;;;;;;;;;;;;5059220;28;19991;-62
2024/03/06 13:09:35;;;;;;;;;;;;;;;;;;5062858;28;19913;-62
2024/03/06 13:12:01;;;;;;;;;;;;;;;;;;5060861;28;19923;-62
2024/03/06 13:14:26;;;;;;;;;;;;;;;;;;5064042;28;19919;-61
2024/03/06 13:16:52;;;;;;;;;;;;;;;;;;5068618;28;20510;-62
2024/03/06 13:19:19;;;;;;;;;;;;;;;;;;5067620;28;19924;-61
2024/03/06 13:21:45;;;;;;;;;;;;;;;;;;5063026;28;19912;-63
2024/03/06 13:24:11;;;;;;;;;;;;;;;;;;5068377;28;20389;-61
2024/03/06 13:26:37;;;;;;;;;;;;;;;;;;5062846;28;19976;-62
2024/03/06 13:29:03;;;;;;;;;;;;;;;;;;5065548;28;19923;-61
2024/03/06 13:31:30;;;;;;;;;;;;;;;;;;5066858;28;19959;-62
2024/03/06 13:33:56;;;;;;;;;;;;;;;;;;5061247;28;20341;-62
2024/03/06 13:36:22;;;;;;;;;;;;;;;;;;5064966;28;19912;-62
2024/03/06 13:38:48;;;;;;;;;;;;;;;;;;5064884;28;19919;-62
2024/03/06 13:41:14;;;;;;;;;;;;;;;;;;5065166;28;20259;-61
2024/03/06 13:43:40;;;;;;;;;;;;;;;;;;5062755;28;19908;-62
2024/03/06 13:46:05;;;;;;;;;;;;;;;;;;5063929;28;19912;-63
2024/03/06 13:48:31;;;;;;;;;;;;;;;;;;5064107;28;19912;-60
2024/03/06 13:50:57;;;;;;;;;;;;;;;;;;5059913;28;19916;-63
2024/03/06 13:53:23;;;;;;;;;;;;;;;;;;5065674;28;19935;-60
2024/03/06 13:55:49;;;;;;;;;;;;;;;;;;5065789;28;19939;-62
2024/03/06 13:58:15;;;;;;;;;;;;;;;;;;5066717;28;19938;-60
2024/03/06 14:00:41;;;;;;;;;;;;;;;;;;5064175;28;19952;-60
2024/03/06 14:03:07;;;;;;;;;;;;;;;;;;5066456;28;19927;-60
2024/03/06 14:05:32;;;;;;;;;;;;;;;;;;5068200;28;20239;-62
2024/03/06 14:07:58;;;;;;;;;;;;;;;;;;5064712;28;19999;-60
2024/03/06 14:10:26;;;;;;;;;;;;;;;;;;5062448;28;20032;-59
2024/03/06 14:12:52;;;;;;;;;;;;;;;;;;5067437;28;19958;-62
2024/03/06 14:15:18;;;;;;;;;;;;;;;;;;5070456;28;19908;-60
2024/03/06 14:17:44;;;;;;;;;;;;;;;;;;5066213;28;19955;-58
2024/03/06 14:20:12;;;;;;;;;;;;;;;;;;5067958;28;19956;-60
2024/03/06 14:22:38;;;;;;;;;;;;;;;;;;5063757;28;19956;-60
2024/03/06 14:25:03;;;;;;;;;;;;;;;;;;5068225;28;19951;-61
2024/03/06 14:27:29;;;;;;;;;;;;;;;;;;5064313;28;20608;-62
2024/03/06 14:29:55;;;;;;;;;;;;;;;;;;5067487;28;20014;-61
2024/03/06 14:32:21;;;;;;;;;;;;;;;;;;5067630;28;19915;-62
2024/03/06 14:34:47;;;;;;;;;;;;;;;;;;5069518;28;19938;-61
2024/03/06 14:37:13;;;;;;;;;;;;;;;;;;5068711;28;19908;-61
2024/03/06 14:39:40;;;;;;;;;;;;;;;;;;5070076;28;19999;-61
2024/03/06 14:42:05;;;;;;;;;;;;;;;;;;5068436;28;19909;-59
2024/03/06 14:44:31;;;;;;;;;;;;;;;;;;5071123;28;20401;-58
2024/03/06 14:46:57;;;;;;;;;;;;;;;;;;5077626;28;20003;-57
2024/03/06 14:49:23;;;;;;;;;;;;;;;;;;5070564;28;19908;-59